sensor_id;sensor_type;location;lat;lon;timestamp;P1;durP1;ratioP1;P2;durP2;ratioP2
23119;SDS011;11729;50.836;4.330;2023-04-05T00:01:38;17.85;;;11.65;;
23119;SDS011;11729;50.836;4.330;2023-04-05T00:04:04;19.40;;;12.15;;
23119;SDS011;11729;50.836;4.330;2023-04-05T00:06:31;17.48;;;12.07;;
23119;SDS011;11729;50.836;4.330;2023-04-05T00:09:01;18.65;;;12.02;;
23119;SDS011;11729;50.836;4.330;2023-04-05T00:11:32;21.25;;;12.40;;
23119;SDS011;11729;50.836;4.330;2023-04-05T00:13:58;16.58;;;12.13;;
23119;SDS011;11729;50.836;4.330;2023-04-05T00:16:25;22.35;;;12.85;;
23119;SDS011;11729;50.836;4.330;2023-04-05T00:18:52;17.60;;;12.25;;
23119;SDS011;11729;50.836;4.330;2023-04-05T00:21:18;19.00;;;12.65;;
23119;SDS011;11729;50.836;4.330;2023-04-05T00:23:47;19.02;;;13.48;;
23119;SDS011;11729;50.836;4.330;2023-04-05T00:26:15;19.33;;;13.07;;
23119;SDS011;11729;50.836;4.330;2023-04-05T00:28:41;20.13;;;13.88;;
23119;SDS011;11729;50.836;4.330;2023-04-05T00:31:06;22.38;;;14.50;;
23119;SDS011;11729;50.836;4.330;2023-04-05T00:33:32;20.17;;;13.65;;
23119;SDS011;11729;50.836;4.330;2023-04-05T00:36:06;20.45;;;13.93;;
23119;SDS011;11729;50.836;4.330;2023-04-05T00:38:36;22.13;;;13.85;;
23119;SDS011;11729;50.836;4.330;2023-04-05T00:41:03;21.40;;;13.93;;
23119;SDS011;11729;50.836;4.330;2023-04-05T00:43:29;19.58;;;13.02;;
23119;SDS011;11729;50.836;4.330;2023-04-05T00:45:55;14.98;;;12.77;;
23119;SDS011;11729;50.836;4.330;2023-04-05T00:48:21;22.42;;;14.32;;
23119;SDS011;11729;50.836;4.330;2023-04-05T00:50:48;16.55;;;13.82;;
23119;SDS011;11729;50.836;4.330;2023-04-05T00:53:17;19.52;;;14.00;;
23119;SDS011;11729;50.836;4.330;2023-04-05T00:55:44;18.92;;;14.13;;
23119;SDS011;11729;50.836;4.330;2023-04-05T00:58:15;22.55;;;14.35;;
23119;SDS011;11729;50.836;4.330;2023-04-05T01:00:45;18.38;;;13.05;;
23119;SDS011;11729;50.836;4.330;2023-04-05T01:03:20;19.48;;;14.13;;
23119;SDS011;11729;50.836;4.330;2023-04-05T01:05:51;20.10;;;14.35;;
23119;SDS011;11729;50.836;4.330;2023-04-05T01:10:58;24.98;;;14.68;;
23119;SDS011;11729;50.836;4.330;2023-04-05T01:13:30;22.73;;;14.88;;
23119;SDS011;11729;50.836;4.330;2023-04-05T01:15:57;23.80;;;14.23;;
23119;SDS011;11729;50.836;4.330;2023-04-05T01:18:23;24.77;;;14.70;;
23119;SDS011;11729;50.836;4.330;2023-04-05T01:24:07;25.77;;;14.20;;
23119;SDS011;11729;50.836;4.330;2023-04-05T01:26:59;23.58;;;15.02;;
23119;SDS011;11729;50.836;4.330;2023-04-05T01:29:38;19.67;;;14.18;;
23119;SDS011;11729;50.836;4.330;2023-04-05T01:32:17;20.13;;;14.17;;
23119;SDS011;11729;50.836;4.330;2023-04-05T01:34:55;20.15;;;14.65;;
23119;SDS011;11729;50.836;4.330;2023-04-05T01:37:31;20.67;;;14.90;;
23119;SDS011;11729;50.836;4.330;2023-04-05T01:39:58;27.05;;;15.45;;
23119;SDS011;11729;50.836;4.330;2023-04-05T01:42:25;21.00;;;15.20;;
23119;SDS011;11729;50.836;4.330;2023-04-05T01:44:52;18.75;;;14.90;;
23119;SDS011;11729;50.836;4.330;2023-04-05T01:47:18;22.88;;;15.35;;
23119;SDS011;11729;50.836;4.330;2023-04-05T01:49:45;23.15;;;14.75;;
23119;SDS011;11729;50.836;4.330;2023-04-05T01:52:11;24.27;;;15.45;;
23119;SDS011;11729;50.836;4.330;2023-04-05T01:54:36;20.73;;;14.90;;
23119;SDS011;11729;50.836;4.330;2023-04-05T01:57:03;20.02;;;14.68;;
23119;SDS011;11729;50.836;4.330;2023-04-05T01:59:29;22.33;;;14.90;;
23119;SDS011;11729;50.836;4.330;2023-04-05T02:01:55;24.33;;;15.18;;
23119;SDS011;11729;50.836;4.330;2023-04-05T02:04:21;21.45;;;15.05;;
23119;SDS011;11729;50.836;4.330;2023-04-05T02:06:46;26.05;;;16.10;;
23119;SDS011;11729;50.836;4.330;2023-04-05T02:09:12;22.70;;;14.85;;
23119;SDS011;11729;50.836;4.330;2023-04-05T02:11:38;31.00;;;16.17;;
23119;SDS011;11729;50.836;4.330;2023-04-05T02:14:03;23.70;;;15.55;;
23119;SDS011;11729;50.836;4.330;2023-04-05T02:16:31;23.13;;;15.32;;
23119;SDS011;11729;50.836;4.330;2023-04-05T02:18:57;22.95;;;16.02;;
23119;SDS011;11729;50.836;4.330;2023-04-05T02:21:23;23.38;;;14.55;;
23119;SDS011;11729;50.836;4.330;2023-04-05T02:23:50;21.77;;;15.10;;
23119;SDS011;11729;50.836;4.330;2023-04-05T02:26:16;27.35;;;14.90;;
23119;SDS011;11729;50.836;4.330;2023-04-05T02:28:42;19.67;;;14.00;;
23119;SDS011;11729;50.836;4.330;2023-04-05T02:31:08;25.88;;;14.68;;
23119;SDS011;11729;50.836;4.330;2023-04-05T02:33:35;20.85;;;14.82;;
23119;SDS011;11729;50.836;4.330;2023-04-05T02:36:02;21.00;;;14.52;;
23119;SDS011;11729;50.836;4.330;2023-04-05T02:41:01;23.30;;;15.00;;
23119;SDS011;11729;50.836;4.330;2023-04-05T02:43:27;22.30;;;14.43;;
23119;SDS011;11729;50.836;4.330;2023-04-05T02:45:53;25.70;;;14.40;;
23119;SDS011;11729;50.836;4.330;2023-04-05T02:48:19;20.98;;;15.43;;
23119;SDS011;11729;50.836;4.330;2023-04-05T02:50:48;19.98;;;14.52;;
23119;SDS011;11729;50.836;4.330;2023-04-05T02:53:16;23.67;;;14.57;;
23119;SDS011;11729;50.836;4.330;2023-04-05T02:55:42;22.98;;;14.40;;
23119;SDS011;11729;50.836;4.330;2023-04-05T02:58:18;22.23;;;15.30;;
23119;SDS011;11729;50.836;4.330;2023-04-05T03:00:46;21.17;;;14.60;;
23119;SDS011;11729;50.836;4.330;2023-04-05T03:03:17;22.30;;;15.32;;
23119;SDS011;11729;50.836;4.330;2023-04-05T03:05:43;20.80;;;15.15;;
23119;SDS011;11729;50.836;4.330;2023-04-05T03:08:10;24.15;;;14.65;;
23119;SDS011;11729;50.836;4.330;2023-04-05T03:10:46;20.13;;;14.30;;
23119;SDS011;11729;50.836;4.330;2023-04-05T03:13:12;19.60;;;14.57;;
23119;SDS011;11729;50.836;4.330;2023-04-05T03:15:38;19.55;;;14.10;;
23119;SDS011;11729;50.836;4.330;2023-04-05T03:18:04;30.15;;;14.82;;
23119;SDS011;11729;50.836;4.330;2023-04-05T03:20:32;20.08;;;14.18;;
23119;SDS011;11729;50.836;4.330;2023-04-05T03:23:00;25.05;;;15.38;;
23119;SDS011;11729;50.836;4.330;2023-04-05T03:25:27;21.92;;;14.68;;
23119;SDS011;11729;50.836;4.330;2023-04-05T03:27:52;29.80;;;15.10;;
23119;SDS011;11729;50.836;4.330;2023-04-05T03:30:19;23.75;;;15.68;;
23119;SDS011;11729;50.836;4.330;2023-04-05T03:32:45;26.48;;;15.18;;
23119;SDS011;11729;50.836;4.330;2023-04-05T03:35:10;27.50;;;14.93;;
23119;SDS011;11729;50.836;4.330;2023-04-05T03:37:37;22.73;;;13.98;;
23119;SDS011;11729;50.836;4.330;2023-04-05T03:40:02;26.77;;;14.57;;
23119;SDS011;11729;50.836;4.330;2023-04-05T03:42:31;20.50;;;14.68;;
23119;SDS011;11729;50.836;4.330;2023-04-05T03:44:57;21.13;;;13.90;;
23119;SDS011;11729;50.836;4.330;2023-04-05T03:47:23;19.50;;;14.27;;
23119;SDS011;11729;50.836;4.330;2023-04-05T03:49:50;20.80;;;14.02;;
23119;SDS011;11729;50.836;4.330;2023-04-05T03:52:16;18.65;;;13.95;;
23119;SDS011;11729;50.836;4.330;2023-04-05T03:54:41;22.30;;;13.95;;
23119;SDS011;11729;50.836;4.330;2023-04-05T03:57:07;24.10;;;14.60;;
23119;SDS011;11729;50.836;4.330;2023-04-05T03:59:32;20.73;;;14.35;;
23119;SDS011;11729;50.836;4.330;2023-04-05T04:01:58;23.45;;;14.43;;
23119;SDS011;11729;50.836;4.330;2023-04-05T04:04:24;22.55;;;15.10;;
23119;SDS011;11729;50.836;4.330;2023-04-05T04:06:50;20.52;;;14.70;;
23119;SDS011;11729;50.836;4.330;2023-04-05T04:09:16;24.63;;;15.55;;
23119;SDS011;11729;50.836;4.330;2023-04-05T04:11:41;20.38;;;14.85;;
23119;SDS011;11729;50.836;4.330;2023-04-05T04:14:07;22.50;;;15.05;;
23119;SDS011;11729;50.836;4.330;2023-04-05T04:16:32;30.48;;;15.23;;
23119;SDS011;11729;50.836;4.330;2023-04-05T04:18:59;25.42;;;15.65;;
23119;SDS011;11729;50.836;4.330;2023-04-05T04:21:25;25.58;;;15.15;;
23119;SDS011;11729;50.836;4.330;2023-04-05T04:23:51;29.55;;;16.63;;
23119;SDS011;11729;50.836;4.330;2023-04-05T04:26:17;24.45;;;14.95;;
23119;SDS011;11729;50.836;4.330;2023-04-05T04:28:52;23.73;;;15.52;;
23119;SDS011;11729;50.836;4.330;2023-04-05T04:31:17;18.85;;;15.52;;
23119;SDS011;11729;50.836;4.330;2023-04-05T04:33:45;22.38;;;15.98;;
23119;SDS011;11729;50.836;4.330;2023-04-05T04:36:15;22.52;;;16.05;;
23119;SDS011;11729;50.836;4.330;2023-04-05T04:38:42;21.33;;;14.95;;
23119;SDS011;11729;50.836;4.330;2023-04-05T04:41:09;24.00;;;15.85;;
23119;SDS011;11729;50.836;4.330;2023-04-05T04:43:35;28.30;;;16.45;;
23119;SDS011;11729;50.836;4.330;2023-04-05T04:46:07;19.75;;;16.10;;
23119;SDS011;11729;50.836;4.330;2023-04-05T04:48:39;25.83;;;15.02;;
23119;SDS011;11729;50.836;4.330;2023-04-05T04:51:06;22.05;;;16.25;;
23119;SDS011;11729;50.836;4.330;2023-04-05T04:53:32;25.42;;;16.00;;
23119;SDS011;11729;50.836;4.330;2023-04-05T04:55:57;28.15;;;17.20;;
23119;SDS011;11729;50.836;4.330;2023-04-05T04:58:23;20.50;;;16.38;;
23119;SDS011;11729;50.836;4.330;2023-04-05T05:00:50;29.08;;;16.65;;
23119;SDS011;11729;50.836;4.330;2023-04-05T05:03:17;31.73;;;16.90;;
23119;SDS011;11729;50.836;4.330;2023-04-05T05:05:43;29.05;;;16.75;;
23119;SDS011;11729;50.836;4.330;2023-04-05T05:08:09;24.05;;;15.38;;
23119;SDS011;11729;50.836;4.330;2023-04-05T05:10:36;25.15;;;14.80;;
23119;SDS011;11729;50.836;4.330;2023-04-05T05:13:01;33.50;;;15.68;;
23119;SDS011;11729;50.836;4.330;2023-04-05T05:15:28;26.10;;;15.20;;
23119;SDS011;11729;50.836;4.330;2023-04-05T05:17:54;27.67;;;15.73;;
23119;SDS011;11729;50.836;4.330;2023-04-05T05:20:20;21.33;;;15.18;;
23119;SDS011;11729;50.836;4.330;2023-04-05T05:22:46;33.33;;;15.70;;
23119;SDS011;11729;50.836;4.330;2023-04-05T05:25:13;27.88;;;15.80;;
23119;SDS011;11729;50.836;4.330;2023-04-05T05:27:39;27.27;;;15.73;;
23119;SDS011;11729;50.836;4.330;2023-04-05T05:30:05;25.85;;;16.27;;
23119;SDS011;11729;50.836;4.330;2023-04-05T05:32:32;29.25;;;15.57;;
23119;SDS011;11729;50.836;4.330;2023-04-05T05:34:58;26.63;;;15.52;;
23119;SDS011;11729;50.836;4.330;2023-04-05T05:37:29;30.92;;;16.35;;
23119;SDS011;11729;50.836;4.330;2023-04-05T05:39:56;25.73;;;15.75;;
23119;SDS011;11729;50.836;4.330;2023-04-05T05:42:22;30.10;;;15.57;;
23119;SDS011;11729;50.836;4.330;2023-04-05T05:44:47;27.67;;;15.65;;
23119;SDS011;11729;50.836;4.330;2023-04-05T05:47:13;33.20;;;16.58;;
23119;SDS011;11729;50.836;4.330;2023-04-05T05:49:39;26.98;;;16.33;;
23119;SDS011;11729;50.836;4.330;2023-04-05T05:52:04;23.40;;;15.18;;
23119;SDS011;11729;50.836;4.330;2023-04-05T05:54:30;30.08;;;16.15;;
23119;SDS011;11729;50.836;4.330;2023-04-05T05:56:56;26.40;;;15.75;;
23119;SDS011;11729;50.836;4.330;2023-04-05T05:59:21;21.27;;;15.15;;
23119;SDS011;11729;50.836;4.330;2023-04-05T06:01:47;29.42;;;16.10;;
23119;SDS011;11729;50.836;4.330;2023-04-05T06:04:15;26.60;;;17.00;;
23119;SDS011;11729;50.836;4.330;2023-04-05T06:06:42;32.17;;;15.93;;
23119;SDS011;11729;50.836;4.330;2023-04-05T06:09:10;26.42;;;15.20;;
23119;SDS011;11729;50.836;4.330;2023-04-05T06:11:36;35.75;;;15.57;;
23119;SDS011;11729;50.836;4.330;2023-04-05T06:14:03;36.05;;;16.48;;
23119;SDS011;11729;50.836;4.330;2023-04-05T06:16:28;28.95;;;16.05;;
23119;SDS011;11729;50.836;4.330;2023-04-05T06:18:56;39.03;;;17.20;;
23119;SDS011;11729;50.836;4.330;2023-04-05T06:21:22;35.95;;;16.52;;
23119;SDS011;11729;50.836;4.330;2023-04-05T06:23:48;36.55;;;16.40;;
23119;SDS011;11729;50.836;4.330;2023-04-05T06:26:22;33.08;;;15.70;;
23119;SDS011;11729;50.836;4.330;2023-04-05T06:28:51;29.48;;;15.68;;
23119;SDS011;11729;50.836;4.330;2023-04-05T06:31:19;25.00;;;16.20;;
23119;SDS011;11729;50.836;4.330;2023-04-05T06:33:49;28.58;;;16.33;;
23119;SDS011;11729;50.836;4.330;2023-04-05T06:36:15;33.53;;;15.60;;
23119;SDS011;11729;50.836;4.330;2023-04-05T06:38:41;24.05;;;15.77;;
23119;SDS011;11729;50.836;4.330;2023-04-05T06:41:06;32.05;;;15.48;;
23119;SDS011;11729;50.836;4.330;2023-04-05T06:43:33;27.67;;;15.80;;
23119;SDS011;11729;50.836;4.330;2023-04-05T06:45:59;35.00;;;14.75;;
23119;SDS011;11729;50.836;4.330;2023-04-05T06:48:25;34.47;;;16.65;;
23119;SDS011;11729;50.836;4.330;2023-04-05T06:50:56;27.13;;;14.27;;
23119;SDS011;11729;50.836;4.330;2023-04-05T06:53:26;28.20;;;13.90;;
23119;SDS011;11729;50.836;4.330;2023-04-05T06:55:54;34.67;;;14.00;;
23119;SDS011;11729;50.836;4.330;2023-04-05T06:58:20;29.33;;;14.27;;
23119;SDS011;11729;50.836;4.330;2023-04-05T07:00:47;26.92;;;13.75;;
23119;SDS011;11729;50.836;4.330;2023-04-05T07:03:13;31.85;;;14.98;;
23119;SDS011;11729;50.836;4.330;2023-04-05T07:05:39;31.10;;;14.10;;
23119;SDS011;11729;50.836;4.330;2023-04-05T07:08:05;27.55;;;13.05;;
23119;SDS011;11729;50.836;4.330;2023-04-05T07:10:31;26.83;;;13.82;;
23119;SDS011;11729;50.836;4.330;2023-04-05T07:12:56;25.95;;;13.95;;
23119;SDS011;11729;50.836;4.330;2023-04-05T07:15:22;21.20;;;13.45;;
23119;SDS011;11729;50.836;4.330;2023-04-05T07:17:47;29.13;;;14.23;;
23119;SDS011;11729;50.836;4.330;2023-04-05T07:20:13;33.50;;;13.57;;
23119;SDS011;11729;50.836;4.330;2023-04-05T07:22:40;31.52;;;14.43;;
23119;SDS011;11729;50.836;4.330;2023-04-05T07:25:06;28.38;;;14.13;;
23119;SDS011;11729;50.836;4.330;2023-04-05T07:27:33;32.10;;;13.93;;
23119;SDS011;11729;50.836;4.330;2023-04-05T07:29:59;30.75;;;14.20;;
23119;SDS011;11729;50.836;4.330;2023-04-05T07:32:25;29.85;;;14.43;;
23119;SDS011;11729;50.836;4.330;2023-04-05T07:34:51;30.48;;;14.77;;
23119;SDS011;11729;50.836;4.330;2023-04-05T07:37:17;39.80;;;14.77;;
23119;SDS011;11729;50.836;4.330;2023-04-05T07:39:43;28.70;;;14.85;;
23119;SDS011;11729;50.836;4.330;2023-04-05T07:42:08;25.88;;;14.70;;
23119;SDS011;11729;50.836;4.330;2023-04-05T07:44:34;30.88;;;14.13;;
23119;SDS011;11729;50.836;4.330;2023-04-05T07:46:59;35.70;;;15.18;;
23119;SDS011;11729;50.836;4.330;2023-04-05T07:49:25;31.60;;;15.00;;
23119;SDS011;11729;50.836;4.330;2023-04-05T07:51:54;39.13;;;15.93;;
23119;SDS011;11729;50.836;4.330;2023-04-05T07:54:21;38.90;;;14.90;;
23119;SDS011;11729;50.836;4.330;2023-04-05T07:56:46;34.88;;;15.25;;
23119;SDS011;11729;50.836;4.330;2023-04-05T07:59:13;33.35;;;14.95;;
23119;SDS011;11729;50.836;4.330;2023-04-05T08:01:40;27.65;;;14.25;;
23119;SDS011;11729;50.836;4.330;2023-04-05T08:04:05;29.45;;;14.60;;
23119;SDS011;11729;50.836;4.330;2023-04-05T08:06:31;25.55;;;15.05;;
23119;SDS011;11729;50.836;4.330;2023-04-05T08:08:56;29.48;;;14.93;;
23119;SDS011;11729;50.836;4.330;2023-04-05T08:11:22;31.13;;;15.70;;
23119;SDS011;11729;50.836;4.330;2023-04-05T08:13:51;28.75;;;14.85;;
23119;SDS011;11729;50.836;4.330;2023-04-05T08:16:18;30.17;;;14.45;;
23119;SDS011;11729;50.836;4.330;2023-04-05T08:18:44;21.48;;;13.40;;
23119;SDS011;11729;50.836;4.330;2023-04-05T08:21:11;23.80;;;14.00;;
23119;SDS011;11729;50.836;4.330;2023-04-05T08:23:37;23.10;;;13.68;;
23119;SDS011;11729;50.836;4.330;2023-04-05T08:26:03;29.52;;;14.82;;
23119;SDS011;11729;50.836;4.330;2023-04-05T08:28:28;24.58;;;13.60;;
23119;SDS011;11729;50.836;4.330;2023-04-05T08:30:54;19.30;;;13.20;;
23119;SDS011;11729;50.836;4.330;2023-04-05T08:33:22;29.58;;;13.43;;
23119;SDS011;11729;50.836;4.330;2023-04-05T08:35:50;41.30;;;28.52;;
23119;SDS011;11729;50.836;4.330;2023-04-05T08:38:16;19.95;;;13.60;;
23119;SDS011;11729;50.836;4.330;2023-04-05T08:40:42;22.73;;;13.60;;
23119;SDS011;11729;50.836;4.330;2023-04-05T08:46:17;15.88;;;11.15;;
23119;SDS011;11729;50.836;4.330;2023-04-05T08:48:43;17.05;;;11.75;;
23119;SDS011;11729;50.836;4.330;2023-04-05T08:51:09;15.68;;;12.40;;
23119;SDS011;11729;50.836;4.330;2023-04-05T08:53:35;20.45;;;11.85;;
23119;SDS011;11729;50.836;4.330;2023-04-05T08:56:01;17.77;;;11.93;;
23119;SDS011;11729;50.836;4.330;2023-04-05T08:58:27;19.00;;;12.50;;
23119;SDS011;11729;50.836;4.330;2023-04-05T09:00:54;19.27;;;11.88;;
23119;SDS011;11729;50.836;4.330;2023-04-05T09:03:21;23.13;;;11.88;;
23119;SDS011;11729;50.836;4.330;2023-04-05T09:05:50;20.58;;;12.15;;
23119;SDS011;11729;50.836;4.330;2023-04-05T09:08:17;17.90;;;12.50;;
23119;SDS011;11729;50.836;4.330;2023-04-05T09:10:46;15.77;;;12.35;;
23119;SDS011;11729;50.836;4.330;2023-04-05T09:13:15;19.58;;;12.73;;
23119;SDS011;11729;50.836;4.330;2023-04-05T09:15:40;22.25;;;12.52;;
23119;SDS011;11729;50.836;4.330;2023-04-05T09:18:06;17.30;;;12.75;;
23119;SDS011;11729;50.836;4.330;2023-04-05T09:20:31;21.65;;;13.35;;
23119;SDS011;11729;50.836;4.330;2023-04-05T09:22:57;18.83;;;13.10;;
23119;SDS011;11729;50.836;4.330;2023-04-05T09:25:33;15.20;;;12.52;;
23119;SDS011;11729;50.836;4.330;2023-04-05T09:28:02;15.55;;;11.98;;
23119;SDS011;11729;50.836;4.330;2023-04-05T09:30:29;14.32;;;11.60;;
23119;SDS011;11729;50.836;4.330;2023-04-05T09:32:55;15.05;;;11.48;;
23119;SDS011;11729;50.836;4.330;2023-04-05T09:35:21;16.38;;;12.52;;
23119;SDS011;11729;50.836;4.330;2023-04-05T09:37:49;15.43;;;12.25;;
23119;SDS011;11729;50.836;4.330;2023-04-05T09:40:18;14.82;;;12.80;;
23119;SDS011;11729;50.836;4.330;2023-04-05T09:42:44;16.23;;;10.85;;
23119;SDS011;11729;50.836;4.330;2023-04-05T09:45:10;11.95;;;10.70;;
23119;SDS011;11729;50.836;4.330;2023-04-05T09:47:36;15.93;;;12.38;;
23119;SDS011;11729;50.836;4.330;2023-04-05T09:50:16;15.07;;;12.75;;
23119;SDS011;11729;50.836;4.330;2023-04-05T09:52:43;17.50;;;12.73;;
23119;SDS011;11729;50.836;4.330;2023-04-05T09:55:10;18.70;;;12.30;;
23119;SDS011;11729;50.836;4.330;2023-04-05T09:57:36;17.35;;;12.65;;
23119;SDS011;11729;50.836;4.330;2023-04-05T10:00:03;17.58;;;12.00;;
23119;SDS011;11729;50.836;4.330;2023-04-05T10:02:36;15.57;;;12.52;;
23119;SDS011;11729;50.836;4.330;2023-04-05T10:05:10;17.35;;;13.15;;
23119;SDS011;11729;50.836;4.330;2023-04-05T10:07:38;16.98;;;12.30;;
23119;SDS011;11729;50.836;4.330;2023-04-05T10:10:05;15.35;;;12.93;;
23119;SDS011;11729;50.836;4.330;2023-04-05T10:12:32;21.38;;;12.75;;
23119;SDS011;11729;50.836;4.330;2023-04-05T10:15:01;14.43;;;12.18;;
23119;SDS011;11729;50.836;4.330;2023-04-05T10:17:27;14.63;;;12.45;;
23119;SDS011;11729;50.836;4.330;2023-04-05T10:23:06;14.45;;;12.20;;
23119;SDS011;11729;50.836;4.330;2023-04-05T10:28:09;16.17;;;11.70;;
23119;SDS011;11729;50.836;4.330;2023-04-05T10:30:39;20.50;;;12.00;;
23119;SDS011;11729;50.836;4.330;2023-04-05T10:41:25;15.68;;;11.68;;
23119;SDS011;11729;50.836;4.330;2023-04-05T10:43:53;17.48;;;12.30;;
23119;SDS011;11729;50.836;4.330;2023-04-05T10:46:21;16.88;;;12.68;;
23119;SDS011;11729;50.836;4.330;2023-04-05T10:51:35;13.95;;;12.35;;
23119;SDS011;11729;50.836;4.330;2023-04-05T10:54:02;16.52;;;11.75;;
23119;SDS011;11729;50.836;4.330;2023-04-05T10:56:31;22.17;;;12.60;;
23119;SDS011;11729;50.836;4.330;2023-04-05T10:58:57;16.65;;;12.40;;
23119;SDS011;11729;50.836;4.330;2023-04-05T11:01:23;15.40;;;12.57;;
23119;SDS011;11729;50.836;4.330;2023-04-05T11:03:50;15.63;;;12.68;;
23119;SDS011;11729;50.836;4.330;2023-04-05T11:06:54;14.37;;;12.87;;
23119;SDS011;11729;50.836;4.330;2023-04-05T11:09:13;17.50;;;12.30;;
23119;SDS011;11729;50.836;4.330;2023-04-05T11:11:44;15.90;;;12.18;;
23119;SDS011;11729;50.836;4.330;2023-04-05T11:16:44;14.75;;;11.93;;
23119;SDS011;11729;50.836;4.330;2023-04-05T11:19:11;15.63;;;11.80;;
23119;SDS011;11729;50.836;4.330;2023-04-05T11:21:40;16.83;;;12.68;;
23119;SDS011;11729;50.836;4.330;2023-04-05T11:24:06;15.23;;;11.88;;
23119;SDS011;11729;50.836;4.330;2023-04-05T11:29:04;14.68;;;12.27;;
23119;SDS011;11729;50.836;4.330;2023-04-05T11:31:30;18.70;;;12.05;;
23119;SDS011;11729;50.836;4.330;2023-04-05T11:33:59;15.00;;;12.20;;
23119;SDS011;11729;50.836;4.330;2023-04-05T11:41:44;16.20;;;13.02;;
23119;SDS011;11729;50.836;4.330;2023-04-05T11:44:14;24.08;;;13.25;;
23119;SDS011;11729;50.836;4.330;2023-04-05T11:46:44;18.88;;;12.50;;
23119;SDS011;11729;50.836;4.330;2023-04-05T11:49:14;16.48;;;12.60;;
23119;SDS011;11729;50.836;4.330;2023-04-05T11:51:40;16.60;;;13.13;;
23119;SDS011;11729;50.836;4.330;2023-04-05T11:54:13;18.67;;;12.57;;
23119;SDS011;11729;50.836;4.330;2023-04-05T11:56:39;17.33;;;13.43;;
23119;SDS011;11729;50.836;4.330;2023-04-05T11:59:05;14.35;;;12.32;;
23119;SDS011;11729;50.836;4.330;2023-04-05T12:01:31;15.60;;;13.15;;
23119;SDS011;11729;50.836;4.330;2023-04-05T12:03:57;19.23;;;13.25;;
23119;SDS011;11729;50.836;4.330;2023-04-05T12:06:23;17.55;;;13.00;;
23119;SDS011;11729;50.836;4.330;2023-04-05T12:08:49;17.97;;;14.10;;
23119;SDS011;11729;50.836;4.330;2023-04-05T12:11:23;17.70;;;13.32;;
23119;SDS011;11729;50.836;4.330;2023-04-05T12:13:58;16.08;;;12.95;;
23119;SDS011;11729;50.836;4.330;2023-04-05T12:16:25;16.90;;;13.95;;
23119;SDS011;11729;50.836;4.330;2023-04-05T12:18:52;20.05;;;13.85;;
23119;SDS011;11729;50.836;4.330;2023-04-05T12:21:22;19.02;;;13.93;;
23119;SDS011;11729;50.836;4.330;2023-04-05T12:23:49;18.42;;;13.82;;
23119;SDS011;11729;50.836;4.330;2023-04-05T12:26:15;16.77;;;13.45;;
23119;SDS011;11729;50.836;4.330;2023-04-05T12:28:55;20.98;;;13.30;;
23119;SDS011;11729;50.836;4.330;2023-04-05T12:34:03;23.30;;;14.95;;
23119;SDS011;11729;50.836;4.330;2023-04-05T12:36:29;16.83;;;13.70;;
23119;SDS011;11729;50.836;4.330;2023-04-05T12:38:58;33.78;;;14.05;;
23119;SDS011;11729;50.836;4.330;2023-04-05T12:41:27;27.42;;;12.95;;
23119;SDS011;11729;50.836;4.330;2023-04-05T12:43:54;66.97;;;15.98;;
23119;SDS011;11729;50.836;4.330;2023-04-05T12:46:38;19.83;;;13.73;;
23119;SDS011;11729;50.836;4.330;2023-04-05T12:49:04;46.25;;;14.18;;
23119;SDS011;11729;50.836;4.330;2023-04-05T12:51:31;19.65;;;13.90;;
23119;SDS011;11729;50.836;4.330;2023-04-05T12:54:00;18.40;;;13.93;;
23119;SDS011;11729;50.836;4.330;2023-04-05T12:56:27;16.88;;;13.85;;
23119;SDS011;11729;50.836;4.330;2023-04-05T12:58:56;16.95;;;14.18;;
23119;SDS011;11729;50.836;4.330;2023-04-05T13:01:23;18.80;;;13.98;;
23119;SDS011;11729;50.836;4.330;2023-04-05T13:03:48;21.90;;;13.73;;
23119;SDS011;11729;50.836;4.330;2023-04-05T13:06:15;19.88;;;14.68;;
23119;SDS011;11729;50.836;4.330;2023-04-05T13:08:41;21.80;;;15.77;;
23119;SDS011;11729;50.836;4.330;2023-04-05T13:11:06;21.13;;;14.48;;
23119;SDS011;11729;50.836;4.330;2023-04-05T13:13:32;18.00;;;14.25;;
23119;SDS011;11729;50.836;4.330;2023-04-05T13:15:58;18.33;;;13.85;;
23119;SDS011;11729;50.836;4.330;2023-04-05T13:18:25;19.48;;;14.10;;
23119;SDS011;11729;50.836;4.330;2023-04-05T13:20:50;17.45;;;13.07;;
23119;SDS011;11729;50.836;4.330;2023-04-05T13:23:16;16.45;;;13.30;;
23119;SDS011;11729;50.836;4.330;2023-04-05T13:25:42;17.75;;;14.38;;
23119;SDS011;11729;50.836;4.330;2023-04-05T13:28:10;20.05;;;14.70;;
23119;SDS011;11729;50.836;4.330;2023-04-05T13:30:36;19.50;;;15.00;;
23119;SDS011;11729;50.836;4.330;2023-04-05T13:33:02;18.88;;;14.27;;
23119;SDS011;11729;50.836;4.330;2023-04-05T13:35:28;23.95;;;15.77;;
23119;SDS011;11729;50.836;4.330;2023-04-05T13:37:54;20.35;;;15.10;;
23119;SDS011;11729;50.836;4.330;2023-04-05T13:40:19;20.25;;;15.27;;
23119;SDS011;11729;50.836;4.330;2023-04-05T13:42:45;19.00;;;15.70;;
23119;SDS011;11729;50.836;4.330;2023-04-05T13:45:13;20.83;;;15.60;;
23119;SDS011;11729;50.836;4.330;2023-04-05T13:47:39;21.08;;;15.27;;
23119;SDS011;11729;50.836;4.330;2023-04-05T13:50:05;19.60;;;15.45;;
23119;SDS011;11729;50.836;4.330;2023-04-05T13:52:31;23.80;;;15.23;;
23119;SDS011;11729;50.836;4.330;2023-04-05T13:54:57;16.80;;;14.43;;
23119;SDS011;11729;50.836;4.330;2023-04-05T13:57:22;77.65;;;20.35;;
23119;SDS011;11729;50.836;4.330;2023-04-05T13:59:48;140.68;;;26.25;;
23119;SDS011;11729;50.836;4.330;2023-04-05T14:02:13;64.75;;;19.13;;
23119;SDS011;11729;50.836;4.330;2023-04-05T14:04:41;103.80;;;22.38;;
23119;SDS011;11729;50.836;4.330;2023-04-05T14:07:07;27.10;;;16.80;;
23119;SDS011;11729;50.836;4.330;2023-04-05T14:09:33;20.05;;;16.38;;
23119;SDS011;11729;50.836;4.330;2023-04-05T14:11:59;24.02;;;16.45;;
23119;SDS011;11729;50.836;4.330;2023-04-05T14:14:28;27.45;;;17.35;;
23119;SDS011;11729;50.836;4.330;2023-04-05T14:16:54;22.38;;;16.88;;
23119;SDS011;11729;50.836;4.330;2023-04-05T14:19:20;21.80;;;15.65;;
23119;SDS011;11729;50.836;4.330;2023-04-05T14:21:45;23.70;;;16.35;;
23119;SDS011;11729;50.836;4.330;2023-04-05T14:24:14;28.08;;;16.48;;
23119;SDS011;11729;50.836;4.330;2023-04-05T14:26:41;28.95;;;15.55;;
23119;SDS011;11729;50.836;4.330;2023-04-05T14:29:09;32.67;;;15.95;;
23119;SDS011;11729;50.836;4.330;2023-04-05T14:31:36;21.98;;;15.70;;
23119;SDS011;11729;50.836;4.330;2023-04-05T14:34:01;23.83;;;16.52;;
23119;SDS011;11729;50.836;4.330;2023-04-05T14:36:27;21.95;;;15.77;;
23119;SDS011;11729;50.836;4.330;2023-04-05T14:38:53;20.88;;;15.27;;
23119;SDS011;11729;50.836;4.330;2023-04-05T14:41:18;20.08;;;15.30;;
23119;SDS011;11729;50.836;4.330;2023-04-05T14:43:44;23.88;;;16.05;;
23119;SDS011;11729;50.836;4.330;2023-04-05T14:46:09;19.90;;;15.43;;
23119;SDS011;11729;50.836;4.330;2023-04-05T14:48:35;22.85;;;16.52;;
23119;SDS011;11729;50.836;4.330;2023-04-05T14:51:01;20.63;;;16.42;;
23119;SDS011;11729;50.836;4.330;2023-04-05T14:53:28;25.25;;;15.95;;
23119;SDS011;11729;50.836;4.330;2023-04-05T14:55:54;24.45;;;17.15;;
23119;SDS011;11729;50.836;4.330;2023-04-05T14:58:20;22.67;;;16.92;;
23119;SDS011;11729;50.836;4.330;2023-04-05T15:00:46;25.13;;;17.15;;
23119;SDS011;11729;50.836;4.330;2023-04-05T15:03:13;24.88;;;16.17;;